createdAt,value
2018-11-20T00:02:50.792Z,100.00
2018-11-20T00:06:34.373Z,100.00
2018-11-20T00:10:17.912Z,100.00
2018-11-20T00:14:01.504Z,100.00
2018-11-20T00:17:23.640Z,100.00
2018-11-20T00:20:45.934Z,100.00
2018-11-20T00:24:17.631Z,100.00
2018-11-20T00:28:02.010Z,100.00
2018-11-20T00:31:45.621Z,100.00
2018-11-20T00:35:29.186Z,100.00
2018-11-20T00:39:12.759Z,100.00
2018-11-20T00:42:56.306Z,100.00
2018-11-20T00:46:32.790Z,100.00
2018-11-20T00:50:16.363Z,100.00
2018-11-20T00:54:00.301Z,100.00
2018-11-20T00:57:22.822Z,100.00
2018-11-20T01:01:06.365Z,100.00
2018-11-20T01:04:49.988Z,100.00
2018-11-20T01:08:33.568Z,100.00
2018-11-20T01:11:58.080Z,100.00
2018-11-20T01:15:41.634Z,100.00
2018-11-20T01:19:21.321Z,100.00
2018-11-20T01:23:04.919Z,100.00
2018-11-20T01:26:48.458Z,100.00
2018-11-20T01:30:32.065Z,100.00
2018-11-20T01:34:13.354Z,100.00
2018-11-20T01:37:46.216Z,100.00
2018-11-20T01:41:29.845Z,100.00
2018-11-20T01:45:13.930Z,100.00
2018-11-20T01:48:45.728Z,100.00
2018-11-20T01:52:29.278Z,100.00
2018-11-20T01:56:12.866Z,100.00
2018-11-20T01:59:40.445Z,100.00
2018-11-20T02:03:15.124Z,100.00
2018-11-20T02:06:58.678Z,100.00
2018-11-20T02:10:42.469Z,100.00
2018-11-20T02:14:46.305Z,100.00
2018-11-20T02:18:32.522Z,100.00
2018-11-20T02:22:08.159Z,100.00
2018-11-20T02:25:41.149Z,100.00
2018-11-20T02:29:01.532Z,100.00
2018-11-20T02:32:45.436Z,100.00
2018-11-20T02:36:28.957Z,100.00
2018-11-20T02:40:12.850Z,100.00
2018-11-20T02:43:56.414Z,100.00
2018-11-20T02:47:23.296Z,100.00
2018-11-20T02:50:46.351Z,100.00
2018-11-20T02:54:29.913Z,100.00
2018-11-20T02:58:13.467Z,100.00
2018-11-20T03:01:47.886Z,100.00
2018-11-20T03:05:31.428Z,100.00
2018-11-20T03:09:15.010Z,100.00
2018-11-20T03:12:58.609Z,100.00
2018-11-20T03:16:42.145Z,100.00
2018-11-20T03:20:24.100Z,100.00
2018-11-20T03:24:07.633Z,100.00
2018-11-20T03:27:51.220Z,100.00
2018-11-20T03:31:34.762Z,100.00
2018-11-20T03:35:18.403Z,100.00
2018-11-20T03:39:02.262Z,100.00
2018-11-20T03:42:45.851Z,100.00
2018-11-20T03:46:28.413Z,100.00
2018-11-20T03:50:11.974Z,100.00
2018-11-20T03:53:55.522Z,100.00
2018-11-20T03:57:39.067Z,100.00
2018-11-20T04:01:22.590Z,100.00
2018-11-20T04:05:06.101Z,100.00
2018-11-20T04:08:49.635Z,100.00
2018-11-20T04:12:33.198Z,100.00
2018-11-20T04:16:16.745Z,100.00
2018-11-20T04:20:00.620Z,100.00
2018-11-20T04:23:44.176Z,100.00
2018-11-20T04:27:27.705Z,100.00
2018-11-20T04:31:49.202Z,100.00
2018-11-20T04:35:33.443Z,100.00
2018-11-20T04:39:07.409Z,100.00
2018-11-20T04:42:51.035Z,100.00
2018-11-20T04:46:34.938Z,100.00
2018-11-20T04:50:07.353Z,100.00
2018-11-20T04:53:50.865Z,100.00
2018-11-20T04:57:13.981Z,100.00
2018-11-20T05:00:57.517Z,100.00
2018-11-20T05:04:41.097Z,100.00
2018-11-20T05:08:24.746Z,100.00
2018-11-20T05:12:08.717Z,100.00
2018-11-20T05:15:52.285Z,100.00
2018-11-20T05:19:35.847Z,100.00
2018-11-20T05:23:19.682Z,100.00
2018-11-20T05:30:34.832Z,100.00
2018-11-20T05:34:01.930Z,100.00
2018-11-20T05:37:17.334Z,100.00
2018-11-20T05:40:38.665Z,100.00
2018-11-20T05:44:18.193Z,100.00
2018-11-20T05:47:48.580Z,100.00
2018-11-20T05:51:32.240Z,100.00
2018-11-20T05:55:15.897Z,100.00
2018-11-20T05:58:59.438Z,100.00
2018-11-20T06:02:43.052Z,100.00
2018-11-20T06:06:26.578Z,100.00
2018-11-20T06:10:10.132Z,100.00
2018-11-20T06:13:53.662Z,100.00
2018-11-20T06:17:37.256Z,100.00
2018-11-20T06:21:20.768Z,100.00
2018-11-20T06:25:04.291Z,100.00
2018-11-20T06:28:31.697Z,100.00
2018-11-20T06:32:15.170Z,100.00
2018-11-20T06:35:59.494Z,100.00
2018-11-20T06:39:43.049Z,100.00
2018-11-20T06:43:26.565Z,100.00
2018-11-20T06:47:03.161Z,100.00
2018-11-20T06:50:46.661Z,99.86
2018-11-20T06:54:30.199Z,99.96
2018-11-20T06:58:03.271Z,99.36
2018-11-20T07:01:40.001Z,98.69
2018-11-20T07:05:23.511Z,98.81
2018-11-20T07:09:07.071Z,98.92
2018-11-20T07:12:50.593Z,98.41
2018-11-20T07:16:54.210Z,98.30
2018-11-20T07:20:37.757Z,97.91
2018-11-20T07:24:21.351Z,98.21
2018-11-20T07:28:04.834Z,98.21
2018-11-20T07:31:48.421Z,98.16
2018-11-20T07:35:31.956Z,98.79
2018-11-20T07:39:15.772Z,98.87
2018-11-20T07:42:43.327Z,98.59
2018-11-20T07:46:06.169Z,99.11
2018-11-20T07:49:49.744Z,99.27
2018-11-20T07:53:33.313Z,99.27
2018-11-20T07:57:06.854Z,99.21
2018-11-20T08:00:50.397Z,98.53
2018-11-20T08:04:34.195Z,97.09
2018-11-20T08:08:17.814Z,95.37
2018-11-20T08:12:10.749Z,92.64
2018-11-20T08:15:54.338Z,89.31
2018-11-20T08:19:38.884Z,86.73
2018-11-20T08:23:02.880Z,87.24
2018-11-20T08:26:47.942Z,87.42
2018-11-20T08:30:31.528Z,87.68
2018-11-20T08:34:34.351Z,88.05
2018-11-20T08:38:18.190Z,88.15
2018-11-20T08:41:55.680Z,89.58
2018-11-20T08:45:26.469Z,89.80
2018-11-20T08:49:10.535Z,89.18
2018-11-20T08:52:54.456Z,89.18
2018-11-20T08:56:37.968Z,88.74
2018-11-20T09:00:21.909Z,88.02
2018-11-20T09:03:49.353Z,87.82
2018-11-20T09:07:05.515Z,86.63
2018-11-20T09:10:49.093Z,87.28
2018-11-20T09:14:32.669Z,86.77
2018-11-20T09:18:00.788Z,87.28
2018-11-20T09:21:25.333Z,86.38
2018-11-20T09:24:51.141Z,87.48
2018-11-20T09:28:18.950Z,87.39
2018-11-20T09:32:02.804Z,87.04
2018-11-20T09:35:46.959Z,86.36
2018-11-20T09:39:30.400Z,85.28
2018-11-20T09:43:13.997Z,85.21
2018-11-20T09:46:57.875Z,85.30
2018-11-20T09:50:41.373Z,84.08
2018-11-20T09:54:24.980Z,84.37
2018-11-20T09:57:41.514Z,83.21
2018-11-20T10:01:25.367Z,83.21
2018-11-20T10:05:08.918Z,83.21
2018-11-20T10:08:52.531Z,83.29
2018-11-20T10:12:36.132Z,82.77
2018-11-20T10:16:19.726Z,82.10
2018-11-20T10:19:47.375Z,81.85
2018-11-20T10:23:30.929Z,82.05
2018-11-20T10:26:52.523Z,82.39
2018-11-20T10:30:18.837Z,82.48
2018-11-20T10:34:02.922Z,81.53
2018-11-20T10:37:46.734Z,81.12
2018-11-20T10:41:30.298Z,80.83
2018-11-20T10:45:13.832Z,81.78
2018-11-20T10:48:38.767Z,81.46
2018-11-20T10:52:01.688Z,81.35
2018-11-20T10:55:25.558Z,80.65
2018-11-20T10:58:48.054Z,81.38
2018-11-20T11:02:31.610Z,81.05
2018-11-20T11:06:34.317Z,80.85
2018-11-20T11:10:17.945Z,80.16
2018-11-20T11:13:54.337Z,80.29
2018-11-20T11:17:37.886Z,80.91
2018-11-20T11:21:21.408Z,81.61
2018-11-20T11:25:05.047Z,80.87
2018-11-20T11:28:51.359Z,80.23
2018-11-20T11:32:32.901Z,79.58
2018-11-20T11:36:16.448Z,80.89
2018-11-20T11:39:59.995Z,79.93
2018-11-20T11:43:16.709Z,79.76
2018-11-20T11:46:47.129Z,80.89
2018-11-20T11:50:10.080Z,79.56
2018-11-20T11:53:53.616Z,79.37
2018-11-20T11:57:37.493Z,78.85
2018-11-20T12:01:21.203Z,78.70
2018-11-20T12:05:04.764Z,79.38
2018-11-20T12:08:48.327Z,78.84
2018-11-20T12:12:31.911Z,79.25
2018-11-20T12:16:15.625Z,77.89
2018-11-20T12:19:59.385Z,79.56
2018-11-20T12:23:42.916Z,81.47
2018-11-20T12:27:26.460Z,78.87
2018-11-20T12:31:11.827Z,78.22
2018-11-20T12:34:31.889Z,78.06
2018-11-20T12:38:02.597Z,78.14
2018-11-20T12:41:46.511Z,77.88
2018-11-20T12:45:34.168Z,78.35
2018-11-20T12:49:14.613Z,76.92
2018-11-20T12:52:41.283Z,77.21
2018-11-20T12:56:02.813Z,78.61
2018-11-20T12:59:46.384Z,77.64
2018-11-20T13:03:30.872Z,77.43
2018-11-20T13:07:14.067Z,76.63
2018-11-20T13:10:57.594Z,76.92
2018-11-20T13:14:27.908Z,77.23
2018-11-20T13:17:45.514Z,77.86
2018-11-20T13:21:21.190Z,75.98
2018-11-20T13:24:33.094Z,73.83
2018-11-20T13:27:58.177Z,72.89
2018-11-20T13:31:41.728Z,73.73
2018-11-20T13:35:25.813Z,75.17
2018-11-20T13:39:09.408Z,76.68
2018-11-20T13:42:53.844Z,77.87
2018-11-20T13:46:37.867Z,78.81
2018-11-20T13:50:21.477Z,78.39
2018-11-20T13:54:05.644Z,78.41
2018-11-20T13:57:45.894Z,77.11
2018-11-20T14:01:14.396Z,78.37
2018-11-20T14:04:58.521Z,78.78
2018-11-20T14:09:01.345Z,78.27
2018-11-20T14:12:45.324Z,77.81
2018-11-20T14:16:29.011Z,77.97
2018-11-20T14:20:31.815Z,77.78
2018-11-20T14:23:56.277Z,78.31
2018-11-20T14:27:26.579Z,79.42
2018-11-20T14:31:10.705Z,79.95
2018-11-20T14:34:54.570Z,81.36
2018-11-20T14:38:17.722Z,82.20
2018-11-20T14:41:40.857Z,81.08
2018-11-20T14:45:06.117Z,80.73
2018-11-20T14:48:26.081Z,81.54
2018-11-20T14:51:42.874Z,83.00
2018-11-20T14:55:06.717Z,82.11
2018-11-20T14:58:37.263Z,82.46
2018-11-20T15:02:21.065Z,83.77
2018-11-20T15:06:05.345Z,83.37
2018-11-20T15:09:49.203Z,83.60
2018-11-20T15:13:14.084Z,83.24
2018-11-20T15:16:57.614Z,84.45
2018-11-20T15:20:41.147Z,86.00
2018-11-20T15:24:24.888Z,87.54
2018-11-20T15:28:08.450Z,89.28
2018-11-20T15:31:52.322Z,90.33
2018-11-20T15:35:36.136Z,91.25
2018-11-20T15:39:20.062Z,92.18
2018-11-20T15:42:43.504Z,93.31
2018-11-20T15:46:16.793Z,94.52
2018-11-20T15:49:39.674Z,95.53
2018-11-20T15:53:03.278Z,96.22
2018-11-20T15:56:28.452Z,96.62
2018-11-20T15:59:59.108Z,97.62
2018-11-20T16:03:23.078Z,98.27
2018-11-20T16:07:01.550Z,99.63
2018-11-20T16:10:07.915Z,100.00
2018-11-20T16:13:51.811Z,100.00
2018-11-20T16:17:35.505Z,100.00
2018-11-20T16:21:19.330Z,100.00
2018-11-20T16:25:02.953Z,100.00
2018-11-20T16:28:46.965Z,100.00
2018-11-20T16:32:30.520Z,100.00
2018-11-20T16:36:06.125Z,100.00
2018-11-20T16:39:49.783Z,100.00
2018-11-20T16:43:33.707Z,100.00
2018-11-20T16:47:17.312Z,100.00
2018-11-20T16:51:01.014Z,100.00
2018-11-20T16:54:44.706Z,100.00
2018-11-20T16:58:08.316Z,100.00
2018-11-20T17:01:51.313Z,100.00
2018-11-20T17:05:18.803Z,100.00
2018-11-20T17:09:02.435Z,100.00
2018-11-20T17:12:44.740Z,100.00
2018-11-20T17:16:28.639Z,100.00
2018-11-20T17:20:03.066Z,100.00
2018-11-20T17:23:46.607Z,100.00
2018-11-20T17:27:30.172Z,100.00
2018-11-20T17:31:14.040Z,100.00
2018-11-20T17:34:57.630Z,100.00
2018-11-20T17:38:41.505Z,100.00
2018-11-20T17:42:04.867Z,100.00
2018-11-20T17:45:41.402Z,100.00
2018-11-20T17:49:24.955Z,100.00
2018-11-20T17:52:55.496Z,100.00
2018-11-20T17:56:26.192Z,100.00
2018-11-20T18:00:05.651Z,100.00
2018-11-20T18:03:42.386Z,100.00
2018-11-20T18:06:59.482Z,100.00
2018-11-20T18:10:42.420Z,100.00
2018-11-20T18:14:11.667Z,100.00
2018-11-20T18:17:55.500Z,100.00
2018-11-20T18:21:29.150Z,100.00
2018-11-20T18:24:51.851Z,100.00
2018-11-20T18:28:15.578Z,100.00
2018-11-20T18:31:59.873Z,100.00
2018-11-20T18:35:43.455Z,100.00
2018-11-20T18:39:29.197Z,100.00
2018-11-20T18:43:03.043Z,100.00
2018-11-20T18:46:39.372Z,100.00
2018-11-20T18:50:23.007Z,100.00
2018-11-20T18:54:06.673Z,100.00
2018-11-20T18:57:58.160Z,100.00
2018-11-20T19:01:42.486Z,100.00
2018-11-20T19:05:26.752Z,100.00
2018-11-20T19:09:10.348Z,100.00
2018-11-20T19:12:53.985Z,100.00
2018-11-20T19:16:37.884Z,100.00
2018-11-20T19:20:21.840Z,100.00
2018-11-20T19:24:05.697Z,100.00
2018-11-20T19:27:24.685Z,100.00
2018-11-20T19:30:48.196Z,100.00
2018-11-20T19:34:11.451Z,100.00
2018-11-20T19:37:40.153Z,100.00
2018-11-20T19:41:23.657Z,100.00
2018-11-20T19:44:58.654Z,100.00
2018-11-20T19:48:42.250Z,100.00
2018-11-20T19:52:08.375Z,100.00
2018-11-20T19:55:46.877Z,100.00
2018-11-20T19:59:17.159Z,100.00
2018-11-20T20:03:00.765Z,100.00
2018-11-20T20:06:44.814Z,100.00
2018-11-20T20:10:31.094Z,100.00
2018-11-20T20:14:11.742Z,100.00
2018-11-20T20:17:39.138Z,100.00
2018-11-20T20:21:16.159Z,100.00
2018-11-20T20:24:40.306Z,100.00
2018-11-20T20:28:23.837Z,100.00
2018-11-20T20:31:48.404Z,100.00
2018-11-20T20:35:12.363Z,100.00
2018-11-20T20:38:35.550Z,100.00
2018-11-20T20:42:00.632Z,100.00
2018-11-20T20:45:44.213Z,100.00
2018-11-20T20:49:27.819Z,100.00
2018-11-20T20:53:11.533Z,100.00
2018-11-20T20:56:55.131Z,100.00
2018-11-20T21:00:38.887Z,100.00
2018-11-20T21:04:22.790Z,100.00
2018-11-20T21:07:46.267Z,100.00
2018-11-20T21:11:29.796Z,100.00
2018-11-20T21:15:13.683Z,100.00
2018-11-20T21:18:57.265Z,100.00
2018-11-20T21:22:41.088Z,100.00
2018-11-20T21:26:25.532Z,100.00
2018-11-20T21:29:53.210Z,100.00
2018-11-20T21:33:37.969Z,100.00
2018-11-20T21:37:03.443Z,100.00
2018-11-20T21:40:46.993Z,100.00
2018-11-20T21:44:30.577Z,100.00
2018-11-20T21:47:59.265Z,100.00
2018-11-20T21:51:32.789Z,100.00
2018-11-20T21:54:57.692Z,100.00
2018-11-20T21:58:41.220Z,100.00
2018-11-20T22:02:25.719Z,100.00
2018-11-20T22:06:16.514Z,100.00
2018-11-20T22:10:19.019Z,100.00
2018-11-20T22:13:52.166Z,100.00
2018-11-20T22:17:35.731Z,100.00
2018-11-20T22:21:19.540Z,100.00
2018-11-20T22:25:03.392Z,100.00
2018-11-20T22:28:46.974Z,100.00
2018-11-20T22:32:11.584Z,100.00
2018-11-20T22:35:55.283Z,100.00
2018-11-20T22:39:38.854Z,100.00
2018-11-20T22:43:22.486Z,100.00
2018-11-20T22:47:09.341Z,100.00
2018-11-20T22:50:53.292Z,100.00
2018-11-20T22:54:38.032Z,100.00
2018-11-20T22:58:01.490Z,100.00
2018-11-20T23:01:45.029Z,100.00
2018-11-20T23:05:26.810Z,100.00
2018-11-20T23:08:52.044Z,100.00
2018-11-20T23:12:17.282Z,100.00
2018-11-20T23:15:43.132Z,100.00
2018-11-20T23:19:08.208Z,100.00
2018-11-20T23:22:14.094Z,100.00
2018-11-20T23:25:39.010Z,100.00
2018-11-20T23:29:03.931Z,100.00
2018-11-20T23:32:28.986Z,100.00
2018-11-20T23:36:12.891Z,100.00
2018-11-20T23:39:19.061Z,100.00
2018-11-20T23:42:44.428Z,100.00
2018-11-20T23:46:09.403Z,100.00
2018-11-20T23:49:34.726Z,100.00
2018-11-20T23:53:00.260Z,100.00
2018-11-20T23:56:43.790Z,100.00
